Time;durP1;ratioP1;P1;durP2;ratioP2;P2;SDS_P1;SDS_P2;PMS_P1;PMS_P2;Temp;Humidity;BMP_temperature;BMP_pressure;BME280_temperature;BME280_humidity;BME280_pressure;Samples;Min_cycle;Max_cycle;Signal;HPM_P1;HPM_P2
2021/10/21 00:01:14;;;;;;;1999.90;999.90;;;;;;;;;;5093767;28;20020;-85
2021/10/21 00:03:40;;;;;;;1999.90;999.90;;;;;;;;;;5094351;28;20024;-84
2021/10/21 00:06:06;;;;;;;1999.90;999.90;;;;;;;;;;5094005;28;20017;-84
2021/10/21 00:08:32;;;;;;;1999.90;999.90;;;;;;;;;;5094167;28;20024;-86
2021/10/21 00:10:58;;;;;;;1999.90;999.90;;;;;;;;;;5094199;28;20032;-84
2021/10/21 00:13:24;;;;;;;1999.90;999.90;;;;;;;;;;5093891;28;20035;-83
2021/10/21 00:15:50;;;;;;;1999.90;999.90;;;;;;;;;;5093893;28;20023;-85
2021/10/21 00:18:16;;;;;;;1999.90;999.90;;;;;;;;;;5094095;28;20024;-86
2021/10/21 00:20:42;;;;;;;1999.90;999.90;;;;;;;;;;5093724;28;20028;-84
2021/10/21 00:23:08;;;;;;;1999.90;999.90;;;;;;;;;;5093867;28;20487;-84
2021/10/21 00:25:35;;;;;;;1999.90;999.90;;;;;;;;;;5093170;28;20028;-86
2021/10/21 00:28:01;;;;;;;1999.90;999.90;;;;;;;;;;5093633;28;20024;-85
2021/10/21 00:30:27;;;;;;;1999.90;999.90;;;;;;;;;;5093822;28;20034;-86
2021/10/21 00:32:53;;;;;;;1999.90;999.90;;;;;;;;;;5093751;28;20028;-86
2021/10/21 00:35:19;;;;;;;1999.90;999.90;;;;;;;;;;5093541;28;20024;-85
2021/10/21 00:37:45;;;;;;;1999.90;999.90;;;;;;;;;;5093362;28;20105;-83
2021/10/21 00:40:12;;;;;;;1999.90;999.90;;;;;;;;;;5093764;28;20148;-83
2021/10/21 00:42:38;;;;;;;1999.90;999.90;;;;;;;;;;5093831;28;20020;-86
2021/10/21 00:45:05;;;;;;;1999.90;999.90;;;;;;;;;;5093708;28;20417;-87
2021/10/21 00:47:31;;;;;;;1999.90;999.90;;;;;;;;;;5093767;28;20020;-87
2021/10/21 00:49:57;;;;;;;1999.90;999.90;;;;;;;;;;5093740;28;20032;-85
2021/10/21 00:52:24;;;;;;;1999.90;999.90;;;;;;;;;;5093525;28;20459;-87
2021/10/21 00:54:50;;;;;;;1999.90;999.90;;;;;;;;;;5093307;28;20031;-85
2021/10/21 00:57:17;;;;;;;1999.90;999.90;;;;;;;;;;5093448;28;20026;-88
2021/10/21 00:59:45;;;;;;;1999.90;999.90;;;;;;;;;;5093273;28;20043;-86
2021/10/21 01:02:11;;;;;;;1999.90;999.90;;;;;;;;;;5093203;28;20074;-87
2021/10/21 01:04:38;;;;;;;1999.90;999.90;;;;;;;;;;5093637;28;20052;-87
2021/10/21 01:07:04;;;;;;;1999.90;999.90;;;;;;;;;;5093400;28;20016;-86
2021/10/21 01:09:31;;;;;;;1999.90;999.90;;;;;;;;;;5093472;28;20082;-85
2021/10/21 01:11:57;;;;;;;1999.90;999.90;;;;;;;;;;5093854;28;20025;-84
2021/10/21 01:14:23;;;;;;;1999.90;999.90;;;;;;;;;;5094437;28;20103;-84
2021/10/21 01:16:49;;;;;;;1999.90;999.90;;;;;;;;;;5093704;28;20056;-86
2021/10/21 01:19:16;;;;;;;1999.90;999.90;;;;;;;;;;5093569;28;20126;-85
2021/10/21 01:21:43;;;;;;;1999.90;999.90;;;;;;;;;;5093203;28;20184;-87
2021/10/21 01:24:09;;;;;;;1999.90;999.90;;;;;;;;;;5093227;28;20046;-84
2021/10/21 01:26:35;;;;;;;1999.90;999.90;;;;;;;;;;5093338;28;20566;-84
2021/10/21 01:29:02;;;;;;;1999.90;999.90;;;;;;;;;;5093348;28;20055;-86
2021/10/21 01:31:28;;;;;;;1999.90;999.90;;;;;;;;;;5093329;28;20082;-85
2021/10/21 01:33:54;;;;;;;1999.90;999.90;;;;;;;;;;5092772;28;20061;-86
2021/10/21 01:36:20;;;;;;;1999.90;999.90;;;;;;;;;;5093447;28;20032;-86
2021/10/21 01:38:46;;;;;;;1999.90;999.90;;;;;;;;;;5096612;28;20044;-87
2021/10/21 01:41:12;;;;;;;1999.90;999.90;;;;;;;;;;5096932;28;20027;-85
2021/10/21 01:43:45;;;;;;;1999.90;999.90;;;;;;;;;;5096963;28;20032;-85
2021/10/21 01:46:11;;;;;;;1999.90;999.90;;;;;;;;;;5096970;28;20020;-86
2021/10/21 01:48:37;;;;;;;1999.90;999.90;;;;;;;;;;5096879;28;20031;-87
2021/10/21 01:51:04;;;;;;;1999.90;999.90;;;;;;;;;;5096728;28;20028;-83
2021/10/21 01:53:30;;;;;;;1999.90;999.90;;;;;;;;;;5096605;28;20028;-87
2021/10/21 01:55:56;;;;;;;1999.90;999.90;;;;;;;;;;5096772;28;20028;-84
2021/10/21 01:58:22;;;;;;;1999.90;999.90;;;;;;;;;;5096083;28;20035;-85
2021/10/21 02:00:48;;;;;;;1999.90;999.90;;;;;;;;;;5097005;28;20118;-86
2021/10/21 02:03:14;;;;;;;1999.90;999.90;;;;;;;;;;5096746;28;20032;-86
2021/10/21 02:05:40;;;;;;;1999.90;999.90;;;;;;;;;;5096539;28;20024;-85
2021/10/21 02:08:06;;;;;;;1999.90;999.90;;;;;;;;;;5096659;28;20031;-83
2021/10/21 02:10:32;;;;;;;1999.90;999.90;;;;;;;;;;5096332;28;20073;-85
2021/10/21 02:12:58;;;;;;;1999.90;999.90;;;;;;;;;;5096677;28;20433;-85
2021/10/21 02:15:24;;;;;;;1999.90;999.90;;;;;;;;;;5096454;28;20032;-87
2021/10/21 02:17:50;;;;;;;1999.90;999.90;;;;;;;;;;5096163;28;20016;-86
2021/10/21 02:20:16;;;;;;;1999.90;999.90;;;;;;;;;;5096274;28;20036;-86
2021/10/21 02:22:44;;;;;;;1999.90;999.90;;;;;;;;;;5096324;28;20024;-84
2021/10/21 02:25:11;;;;;;;1999.90;999.90;;;;;;;;;;5096188;28;20028;-86
2021/10/21 02:27:38;;;;;;;1999.90;999.90;;;;;;;;;;5096479;28;20024;-83
2021/10/21 02:30:05;;;;;;;1999.90;999.90;;;;;;;;;;5095920;28;20028;-85
2021/10/21 02:32:31;;;;;;;1999.90;999.90;;;;;;;;;;5095912;28;20026;-85
2021/10/21 02:34:57;;;;;;;1999.90;999.90;;;;;;;;;;5095696;28;20078;-85
2021/10/21 02:37:23;;;;;;;1999.90;999.90;;;;;;;;;;5095666;28;20114;-85
2021/10/21 02:39:50;;;;;;;1999.90;999.90;;;;;;;;;;5095553;28;20063;-87
2021/10/21 02:42:16;;;;;;;1999.90;999.90;;;;;;;;;;5095862;28;20020;-84
2021/10/21 02:44:42;;;;;;;1999.90;999.90;;;;;;;;;;5095667;28;20077;-84
2021/10/21 02:47:08;;;;;;;1999.90;999.90;;;;;;;;;;5095102;28;20021;-84
2021/10/21 02:49:34;;;;;;;1999.90;999.90;;;;;;;;;;5095331;28;20451;-83
2021/10/21 02:52:00;;;;;;;1999.90;999.90;;;;;;;;;;5095444;28;20024;-85
2021/10/21 02:54:26;;;;;;;1999.90;999.90;;;;;;;;;;5095285;28;20016;-87
2021/10/21 02:56:52;;;;;;;1999.90;999.90;;;;;;;;;;5095541;28;20042;-86
2021/10/21 02:59:18;;;;;;;1999.90;999.90;;;;;;;;;;5095243;28;20467;-85
2021/10/21 03:01:44;;;;;;;1999.90;999.90;;;;;;;;;;5095276;28;20125;-86
2021/10/21 03:04:13;;;;;;;1999.90;999.90;;;;;;;;;;5095899;28;20112;-84
2021/10/21 03:06:39;;;;;;;1999.90;999.90;;;;;;;;;;5095757;28;20422;-85
2021/10/21 03:09:05;;;;;;;1999.90;999.90;;;;;;;;;;5095207;28;20459;-85
2021/10/21 03:11:31;;;;;;;1999.90;999.90;;;;;;;;;;5095073;28;20029;-85
2021/10/21 03:13:57;;;;;;;1999.90;999.90;;;;;;;;;;5095295;28;20020;-85
2021/10/21 03:16:29;;;;;;;1999.90;999.90;;;;;;;;;;5095158;28;20032;-85
2021/10/21 03:18:55;;;;;;;1999.90;999.90;;;;;;;;;;5094996;28;20040;-86
2021/10/21 03:21:21;;;;;;;1999.90;999.90;;;;;;;;;;5094812;28;20422;-86
2021/10/21 03:23:47;;;;;;;1999.90;999.90;;;;;;;;;;5094899;28;20483;-88
2021/10/21 03:26:13;;;;;;;1999.90;999.90;;;;;;;;;;5095036;28;20020;-85
2021/10/21 03:28:39;;;;;;;1999.90;999.90;;;;;;;;;;5095486;28;20065;-84
2021/10/21 03:31:05;;;;;;;1999.90;999.90;;;;;;;;;;5094873;28;20032;-84
2021/10/21 03:33:31;;;;;;;1999.90;999.90;;;;;;;;;;5094640;28;20124;-85
2021/10/21 03:35:57;;;;;;;1999.90;999.90;;;;;;;;;;5095110;28;20445;-86
2021/10/21 03:38:24;;;;;;;1999.90;999.90;;;;;;;;;;5094715;28;20066;-85
2021/10/21 03:40:50;;;;;;;1999.90;999.90;;;;;;;;;;5094388;28;20020;-86
2021/10/21 03:43:16;;;;;;;1999.90;999.90;;;;;;;;;;5094680;28;20028;-86
2021/10/21 03:45:42;;;;;;;1999.90;999.90;;;;;;;;;;5094468;28;20463;-88
2021/10/21 03:48:09;;;;;;;1999.90;999.90;;;;;;;;;;5094150;28;20023;-84
2021/10/21 03:50:35;;;;;;;1999.90;999.90;;;;;;;;;;5094324;28;20020;-86
2021/10/21 03:53:01;;;;;;;1999.90;999.90;;;;;;;;;;5094327;28;20441;-87
2021/10/21 03:55:27;;;;;;;1999.90;999.90;;;;;;;;;;5094012;28;20111;-85
2021/10/21 03:57:53;;;;;;;1999.90;999.90;;;;;;;;;;5094124;28;20034;-86
2021/10/21 04:00:19;;;;;;;1999.90;999.90;;;;;;;;;;5093435;28;20170;-83
2021/10/21 04:02:45;;;;;;;1999.90;999.90;;;;;;;;;;5093906;28;20028;-88
2021/10/21 04:05:11;;;;;;;1999.90;999.90;;;;;;;;;;5093773;28;20047;-86
2021/10/21 04:07:37;;;;;;;1999.90;999.90;;;;;;;;;;5094203;28;20077;-86
2021/10/21 04:10:04;;;;;;;1999.90;999.90;;;;;;;;;;5094064;28;20028;-88
2021/10/21 04:12:31;;;;;;;1999.90;999.90;;;;;;;;;;5094054;28;20027;-86
2021/10/21 04:14:58;;;;;;;1999.90;999.90;;;;;;;;;;5094164;28;20028;-86
2021/10/21 04:17:24;;;;;;;1999.90;999.90;;;;;;;;;;5094047;28;20030;-87
2021/10/21 04:19:50;;;;;;;1999.90;999.90;;;;;;;;;;5093789;28;20064;-87
2021/10/21 04:22:16;;;;;;;1999.90;999.90;;;;;;;;;;5094020;28;20027;-85
2021/10/21 04:24:42;;;;;;;1999.90;999.90;;;;;;;;;;5093992;28;20039;-85
2021/10/21 04:27:09;;;;;;;1999.90;999.90;;;;;;;;;;5093883;28;20062;-86
2021/10/21 04:29:35;;;;;;;1999.90;999.90;;;;;;;;;;5094114;28;20028;-85
2021/10/21 04:32:01;;;;;;;1999.90;999.90;;;;;;;;;;5093916;28;20024;-86
2021/10/21 04:34:27;;;;;;;1999.90;999.90;;;;;;;;;;5093987;28;20085;-85
2021/10/21 04:36:53;;;;;;;1999.90;999.90;;;;;;;;;;5093623;28;20028;-86
2021/10/21 04:39:19;;;;;;;1999.90;999.90;;;;;;;;;;5093512;28;20036;-85
2021/10/21 04:41:45;;;;;;;1999.90;999.90;;;;;;;;;;5093666;28;20020;-86
2021/10/21 04:44:11;;;;;;;1999.90;999.90;;;;;;;;;;5093582;28;20118;-85
2021/10/21 04:46:37;;;;;;;1999.90;999.90;;;;;;;;;;5093476;28;20020;-86
2021/10/21 04:49:03;;;;;;;1999.90;999.90;;;;;;;;;;5093764;28;20111;-85
2021/10/21 04:51:29;;;;;;;1999.90;999.90;;;;;;;;;;5094768;28;20052;-87
2021/10/21 04:53:55;;;;;;;1999.90;999.90;;;;;;;;;;5093224;28;20024;-84
2021/10/21 04:56:21;;;;;;;1999.90;999.90;;;;;;;;;;5093593;28;20020;-86
2021/10/21 04:58:47;;;;;;;1999.90;999.90;;;;;;;;;;5093326;28;20032;-84
2021/10/21 05:01:13;;;;;;;1999.90;999.90;;;;;;;;;;5093166;28;20025;-84
2021/10/21 05:03:39;;;;;;;1999.90;999.90;;;;;;;;;;5093165;28;20020;-86
2021/10/21 05:06:05;;;;;;;1999.90;999.90;;;;;;;;;;5093254;28;20078;-86
2021/10/21 05:08:31;;;;;;;1999.90;999.90;;;;;;;;;;5094188;28;20032;-86
2021/10/21 05:10:57;;;;;;;1999.90;999.90;;;;;;;;;;5097770;28;20463;-87
2021/10/21 05:13:23;;;;;;;1999.90;999.90;;;;;;;;;;5097293;28;20020;-87
2021/10/21 05:15:50;;;;;;;1999.90;999.90;;;;;;;;;;5097805;28;20570;-85
2021/10/21 05:18:16;;;;;;;1999.90;999.90;;;;;;;;;;5097370;28;20040;-84
2021/10/21 05:20:42;;;;;;;1999.90;999.90;;;;;;;;;;5099846;28;20463;-84
2021/10/21 05:23:08;;;;;;;1999.90;999.90;;;;;;;;;;5097222;28;20089;-85
2021/10/21 05:25:34;;;;;;;1999.90;999.90;;;;;;;;;;5102126;28;20028;-88
2021/10/21 05:28:00;;;;;;;1999.90;999.90;;;;;;;;;;5096895;28;20031;-85
2021/10/21 05:30:26;;;;;;;1999.90;999.90;;;;;;;;;;5096993;28;20027;-89
2021/10/21 05:32:52;;;;;;;1999.90;999.90;;;;;;;;;;5096983;28;20109;-86
2021/10/21 05:35:19;;;;;;;1999.90;999.90;;;;;;;;;;5097143;28;20115;-84
2021/10/21 05:37:45;;;;;;;1999.90;999.90;;;;;;;;;;5096753;28;20052;-85
2021/10/21 05:40:11;;;;;;;1999.90;999.90;;;;;;;;;;5097143;28;20112;-85
2021/10/21 05:42:37;;;;;;;1999.90;999.90;;;;;;;;;;5096604;28;20111;-86
2021/10/21 05:45:03;;;;;;;1999.90;999.90;;;;;;;;;;5096853;28;20089;-83
2021/10/21 05:47:29;;;;;;;1999.90;999.90;;;;;;;;;;5096840;28;20052;-87
2021/10/21 05:49:55;;;;;;;1999.90;999.90;;;;;;;;;;5096777;28;20032;-84
2021/10/21 05:52:24;;;;;;;1999.90;999.90;;;;;;;;;;5096407;28;20371;-85
2021/10/21 05:54:51;;;;;;;1999.90;999.90;;;;;;;;;;5096435;28;20016;-86
2021/10/21 05:57:18;;;;;;;1999.90;999.90;;;;;;;;;;5096365;28;20028;-84
2021/10/21 05:59:44;;;;;;;1999.90;999.90;;;;;;;;;;5096750;28;20032;-84
2021/10/21 06:02:10;;;;;;;1999.90;999.90;;;;;;;;;;5096928;28;20026;-84
2021/10/21 06:04:36;;;;;;;1999.90;999.90;;;;;;;;;;5096404;28;20031;-89
2021/10/21 06:07:02;;;;;;;1999.90;999.90;;;;;;;;;;5096409;28;20047;-87
2021/10/21 06:09:28;;;;;;;1999.90;999.90;;;;;;;;;;5096537;28;20027;-84
2021/10/21 06:11:54;;;;;;;1999.90;999.90;;;;;;;;;;5095200;28;20540;-75
2021/10/21 06:14:20;;;;;;;1999.90;999.90;;;;;;;;;;5095301;28;20020;-77
2021/10/21 06:16:48;;;;;;;1999.90;999.90;;;;;;;;;;5095118;28;20099;-77
2021/10/21 06:19:15;;;;;;;1999.90;999.90;;;;;;;;;;5095261;28;20032;-75
2021/10/21 06:21:45;;;;;;;1999.90;999.90;;;;;;;;;;5094768;28;20431;-75
2021/10/21 06:24:11;;;;;;;1999.90;999.90;;;;;;;;;;5094719;28;20054;-75
2021/10/21 06:26:37;;;;;;;1999.90;999.90;;;;;;;;;;5097472;28;20024;-88
2021/10/21 06:29:03;;;;;;;1999.90;999.90;;;;;;;;;;5095212;28;20043;-80
2021/10/21 06:31:29;;;;;;;1999.90;999.90;;;;;;;;;;5093715;28;20043;-82
2021/10/21 06:33:55;;;;;;;1999.90;999.90;;;;;;;;;;5095955;28;20066;-82
2021/10/21 06:36:21;;;;;;;1999.90;999.90;;;;;;;;;;5095030;28;20028;-82
2021/10/21 06:38:47;;;;;;;1999.90;999.90;;;;;;;;;;5094624;28;20049;-79
2021/10/21 06:41:13;;;;;;;1999.90;999.90;;;;;;;;;;5093972;28;20072;-81
2021/10/21 06:43:39;;;;;;;1999.90;999.90;;;;;;;;;;5094058;28;20051;-80
2021/10/21 06:46:06;;;;;;;1999.90;999.90;;;;;;;;;;5093787;28;20025;-79
2021/10/21 06:48:32;;;;;;;1999.90;999.90;;;;;;;;;;5093345;28;20024;-79
2021/10/21 06:50:58;;;;;;;1999.90;999.90;;;;;;;;;;5093284;28;20016;-79
2021/10/21 06:53:24;;;;;;;1999.90;999.90;;;;;;;;;;5092839;28;20059;-79
2021/10/21 06:55:50;;;;;;;1999.90;999.90;;;;;;;;;;5092499;28;20406;-80
2021/10/21 06:58:16;;;;;;;1999.90;999.90;;;;;;;;;;5092987;28;20114;-78
2021/10/21 07:00:43;;;;;;;1999.90;999.90;;;;;;;;;;5092981;28;20028;-80
2021/10/21 07:03:10;;;;;;;1999.90;999.90;;;;;;;;;;5088652;28;20031;-78
2021/10/21 07:05:39;;;;;;;1999.90;999.90;;;;;;;;;;5092286;28;20024;-80
2021/10/21 07:08:06;;;;;;;1999.90;999.90;;;;;;;;;;5093694;28;20123;-78
2021/10/21 07:10:32;;;;;;;1999.90;999.90;;;;;;;;;;5093746;28;20024;-78
2021/10/21 07:12:58;;;;;;;1999.90;999.90;;;;;;;;;;5093544;28;20032;-80
2021/10/21 07:15:24;;;;;;;1999.90;999.90;;;;;;;;;;5093283;28;20048;-79
2021/10/21 07:17:50;;;;;;;1999.90;999.90;;;;;;;;;;5094298;28;20048;-80
2021/10/21 07:20:16;;;;;;;1999.90;999.90;;;;;;;;;;5094868;28;20058;-84
2021/10/21 07:22:43;;;;;;;1999.90;999.90;;;;;;;;;;5093931;28;20072;-79
2021/10/21 07:25:10;;;;;;;1999.90;999.90;;;;;;;;;;5093238;28;20084;-85
2021/10/21 07:27:36;;;;;;;1999.90;999.90;;;;;;;;;;5093118;28;20156;-87
2021/10/21 07:30:02;;;;;;;1999.90;999.90;;;;;;;;;;5094890;28;20020;-79
2021/10/21 07:32:28;;;;;;;1999.90;999.90;;;;;;;;;;5093805;28;20065;-86
2021/10/21 07:34:54;;;;;;;1999.90;999.90;;;;;;;;;;5093445;28;20024;-83
2021/10/21 07:37:20;;;;;;;1999.90;999.90;;;;;;;;;;5094734;28;20048;-79
2021/10/21 07:39:48;;;;;;;1999.90;999.90;;;;;;;;;;5093466;28;20610;-85
2021/10/21 07:42:14;;;;;;;1999.90;999.90;;;;;;;;;;5092670;28;20085;-76
2021/10/21 07:44:47;;;;;;;1999.90;999.90;;;;;;;;;;5093809;28;20462;-80
2021/10/21 07:47:13;;;;;;;1999.90;999.90;;;;;;;;;;5092721;28;20024;-79
2021/10/21 07:49:39;;;;;;;1999.90;999.90;;;;;;;;;;5093032;28;20013;-82
2021/10/21 07:52:05;;;;;;;1999.90;999.90;;;;;;;;;;5092476;28;20034;-81
2021/10/21 07:54:32;;;;;;;1999.90;999.90;;;;;;;;;;5092891;28;20106;-81
2021/10/21 07:56:58;;;;;;;1999.90;999.90;;;;;;;;;;5092484;28;20081;-78
2021/10/21 07:59:26;;;;;;;1999.90;999.90;;;;;;;;;;5093247;28;20471;-79
2021/10/21 08:01:52;;;;;;;1999.90;999.90;;;;;;;;;;5092193;28;20144;-79
2021/10/21 08:04:18;;;;;;;1999.90;999.90;;;;;;;;;;5092219;28;20448;-82
2021/10/21 08:06:45;;;;;;;1999.90;999.90;;;;;;;;;;5092435;28;20027;-79
2021/10/21 08:09:11;;;;;;;1999.90;999.90;;;;;;;;;;5092121;28;20024;-81
2021/10/21 08:11:38;;;;;;;1999.90;999.90;;;;;;;;;;5093355;28;20051;-78
2021/10/21 08:14:06;;;;;;;1999.90;999.90;;;;;;;;;;5091737;28;20020;-80
2021/10/21 08:16:32;;;;;;;1999.90;999.90;;;;;;;;;;5092872;28;20490;-79
2021/10/21 08:18:59;;;;;;;1999.90;999.90;;;;;;;;;;5092087;28;20040;-80
2021/10/21 08:21:25;;;;;;;1999.90;999.90;;;;;;;;;;5091715;28;20024;-80
2021/10/21 08:23:54;;;;;;;1999.90;999.90;;;;;;;;;;5091447;28;20490;-79
2021/10/21 08:26:21;;;;;;;1999.90;999.90;;;;;;;;;;5091204;28;20020;-79
2021/10/21 08:28:48;;;;;;;1999.90;999.90;;;;;;;;;;5091252;28;20019;-79
2021/10/21 08:31:15;;;;;;;1999.90;999.90;;;;;;;;;;5091346;28;20391;-79
2021/10/21 08:33:41;;;;;;;1999.90;999.90;;;;;;;;;;5092189;28;20080;-79
2021/10/21 08:36:11;;;;;;;1999.90;999.90;;;;;;;;;;5092881;28;20024;-79
2021/10/21 08:38:37;;;;;;;1999.90;999.90;;;;;;;;;;5091038;28;20048;-79
2021/10/21 08:41:03;;;;;;;1999.90;999.90;;;;;;;;;;5092971;28;20024;-79
2021/10/21 08:43:29;;;;;;;1999.90;999.90;;;;;;;;;;5092813;28;20013;-79
2021/10/21 08:45:56;;;;;;;1999.90;999.90;;;;;;;;;;5091007;28;20032;-78
2021/10/21 08:48:23;;;;;;;1999.90;999.90;;;;;;;;;;5091460;28;20051;-78
2021/10/21 08:50:49;;;;;;;1999.90;999.90;;;;;;;;;;5091144;28;20020;-79
2021/10/21 08:53:15;;;;;;;1999.90;999.90;;;;;;;;;;5092523;28;20036;-79
2021/10/21 08:55:41;;;;;;;1999.90;999.90;;;;;;;;;;5091255;28;20103;-78
2021/10/21 08:58:07;;;;;;;1999.90;999.90;;;;;;;;;;5090753;28;20131;-79
2021/10/21 09:00:35;;;;;;;1999.90;999.90;;;;;;;;;;5090779;28;20024;-79
2021/10/21 09:03:03;;;;;;;1999.90;999.90;;;;;;;;;;5092441;28;20024;-80
2021/10/21 09:08:03;;;;;;;1999.90;999.90;;;;;;;;;;5092384;28;20031;-78
2021/10/21 09:10:30;;;;;;;1999.90;999.90;;;;;;;;;;5092251;28;20024;-78
2021/10/21 09:12:56;;;;;;;1999.90;999.90;;;;;;;;;;5090889;28;20024;-77
2021/10/21 09:15:24;;;;;;;1999.90;999.90;;;;;;;;;;5090838;28;20544;-78
2021/10/21 09:17:51;;;;;;;1999.90;999.90;;;;;;;;;;5091102;28;20031;-78
2021/10/21 09:20:25;;;;;;;1999.90;999.90;;;;;;;;;;5092260;28;20024;-79
2021/10/21 09:22:56;;;;;;;1999.90;999.90;;;;;;;;;;5091042;28;20028;-77
2021/10/21 09:25:23;;;;;;;1999.90;999.90;;;;;;;;;;5092037;28;20486;-79
2021/10/21 09:27:49;;;;;;;1999.90;999.90;;;;;;;;;;5091254;28;20016;-79
2021/10/21 09:30:19;;;;;;;1999.90;999.90;;;;;;;;;;5092155;28;20107;-78
2021/10/21 09:32:46;;;;;;;1999.90;999.90;;;;;;;;;;5092210;28;20020;-79
2021/10/21 09:35:14;;;;;;;1999.90;999.90;;;;;;;;;;5091971;28;20024;-77
2021/10/21 09:37:42;;;;;;;1999.90;999.90;;;;;;;;;;5091917;28;20047;-79
2021/10/21 09:40:10;;;;;;;1999.90;999.90;;;;;;;;;;5090952;28;20036;-79
2021/10/21 09:42:40;;;;;;;1999.90;999.90;;;;;;;;;;5090655;28;20021;-79
2021/10/21 09:45:14;;;;;;;1999.90;999.90;;;;;;;;;;5091647;28;20020;-75
2021/10/21 09:48:07;;;;;;;1999.90;999.90;;;;;;;;;;5091926;28;20020;-77
2021/10/21 09:50:38;;;;;;;1999.90;999.90;;;;;;;;;;5086857;28;20035;-78
2021/10/21 09:53:04;;;;;;;1999.90;999.90;;;;;;;;;;5090725;28;20047;-78
2021/10/21 09:55:30;;;;;;;1999.90;999.90;;;;;;;;;;5091977;28;20455;-78
2021/10/21 09:58:00;;;;;;;1999.90;999.90;;;;;;;;;;5091782;28;20032;-79
2021/10/21 10:00:30;;;;;;;1999.90;999.90;;;;;;;;;;5095650;28;20023;-78
2021/10/21 10:03:06;;;;;;;1999.90;999.90;;;;;;;;;;5095644;28;20020;-79
2021/10/21 10:05:32;;;;;;;1999.90;999.90;;;;;;;;;;5095483;28;20020;-79
2021/10/21 10:07:58;;;;;;;1999.90;999.90;;;;;;;;;;5095153;28;20081;-77
2021/10/21 10:10:24;;;;;;;1999.90;999.90;;;;;;;;;;5094940;28;20079;-78
2021/10/21 10:12:50;;;;;;;1999.90;999.90;;;;;;;;;;5093865;28;20469;-79
2021/10/21 10:15:16;;;;;;;1999.90;999.90;;;;;;;;;;5093953;28;20020;-77
2021/10/21 10:17:42;;;;;;;1999.90;999.90;;;;;;;;;;5094014;28;20085;-80
2021/10/21 10:20:09;;;;;;;1999.90;999.90;;;;;;;;;;5095476;28;20382;-75
2021/10/21 10:22:39;;;;;;;1999.90;999.90;;;;;;;;;;5095079;28;20367;-77
2021/10/21 10:25:22;;;;;;;1999.90;999.90;;;;;;;;;;5094805;28;20047;-74
2021/10/21 10:27:59;;;;;;;1999.90;999.90;;;;;;;;;;5094652;28;20031;-73
2021/10/21 10:30:43;;;;;;;1999.90;999.90;;;;;;;;;;5094928;28;20020;-74
2021/10/21 10:33:09;;;;;;;1999.90;999.90;;;;;;;;;;5094574;28;20063;-74
2021/10/21 10:35:37;;;;;;;1999.90;999.90;;;;;;;;;;5095844;28;20027;-79
2021/10/21 10:38:07;;;;;;;1999.90;999.90;;;;;;;;;;5095749;28;20534;-78
2021/10/21 10:40:56;;;;;;;1999.90;999.90;;;;;;;;;;5096554;28;20055;-82
2021/10/21 10:43:37;;;;;;;1999.90;999.90;;;;;;;;;;5094852;28;20464;-82
2021/10/21 10:46:03;;;;;;;1999.90;999.90;;;;;;;;;;5096281;28;20069;-80
2021/10/21 10:48:49;;;;;;;1999.90;999.90;;;;;;;;;;5094990;28;20020;-79
2021/10/21 10:51:15;;;;;;;1999.90;999.90;;;;;;;;;;5094764;28;20081;-81
2021/10/21 10:53:42;;;;;;;1999.90;999.90;;;;;;;;;;5094689;28;20027;-80
2021/10/21 10:56:08;;;;;;;1999.90;999.90;;;;;;;;;;5095635;28;20035;-80
2021/10/21 10:58:34;;;;;;;1999.90;999.90;;;;;;;;;;5094905;28;20038;-79
2021/10/21 11:01:00;;;;;;;1999.90;999.90;;;;;;;;;;5094664;28;20016;-81
2021/10/21 11:03:35;;;;;;;1999.90;999.90;;;;;;;;;;5094936;28;20121;-81
2021/10/21 11:06:03;;;;;;;1999.90;999.90;;;;;;;;;;5094688;28;20023;-81
2021/10/21 11:08:47;;;;;;;1999.90;999.90;;;;;;;;;;5094097;28;20067;-81
2021/10/21 11:11:33;;;;;;;1999.90;999.90;;;;;;;;;;5094408;28;20084;-81
2021/10/21 11:14:06;;;;;;;1999.90;999.90;;;;;;;;;;5095301;28;20027;-82
2021/10/21 11:16:43;;;;;;;1999.90;999.90;;;;;;;;;;5094102;28;20028;-81
2021/10/21 11:19:10;;;;;;;1999.90;999.90;;;;;;;;;;5095301;28;20119;-79
2021/10/21 11:22:06;;;;;;;1999.90;999.90;;;;;;;;;;5093856;28;20016;-79
2021/10/21 11:24:48;;;;;;;1999.90;999.90;;;;;;;;;;5072688;28;20152;-80
2021/10/21 11:27:15;;;;;;;1999.90;999.90;;;;;;;;;;5095300;28;20657;-80
2021/10/21 11:29:41;;;;;;;1999.90;999.90;;;;;;;;;;5094515;28;20421;-79
2021/10/21 11:32:08;;;;;;;1999.90;999.90;;;;;;;;;;5093906;28;20024;-80
2021/10/21 11:34:35;;;;;;;1999.90;999.90;;;;;;;;;;5094041;28;20016;-81
2021/10/21 11:37:01;;;;;;;1999.90;999.90;;;;;;;;;;5094024;28;20415;-80
2021/10/21 11:39:35;;;;;;;1999.90;999.90;;;;;;;;;;5093783;28;20032;-80
2021/10/21 11:42:08;;;;;;;1999.90;999.90;;;;;;;;;;5093808;28;20031;-81
2021/10/21 11:44:35;;;;;;;1999.90;999.90;;;;;;;;;;5093647;28;20020;-80
2021/10/21 11:47:02;;;;;;;1999.90;999.90;;;;;;;;;;5093805;28;20024;-80
2021/10/21 11:49:37;;;;;;;1999.90;999.90;;;;;;;;;;5093608;28;20012;-76
2021/10/21 11:52:03;;;;;;;1999.90;999.90;;;;;;;;;;5093496;28;20020;-77
2021/10/21 11:54:29;;;;;;;1999.90;999.90;;;;;;;;;;5094743;28;20028;-81
2021/10/21 11:56:56;;;;;;;1999.90;999.90;;;;;;;;;;5093191;28;20120;-78
2021/10/21 11:59:35;;;;;;;1999.90;999.90;;;;;;;;;;5092254;28;20036;-80
2021/10/21 12:02:08;;;;;;;1999.90;999.90;;;;;;;;;;5093227;28;20078;-79
2021/10/21 12:04:36;;;;;;;1999.90;999.90;;;;;;;;;;5093078;28;20027;-79
2021/10/21 12:07:02;;;;;;;1999.90;999.90;;;;;;;;;;5094467;28;20023;-79
2021/10/21 12:09:31;;;;;;;1999.90;999.90;;;;;;;;;;5093238;28;20024;-80
2021/10/21 12:12:16;;;;;;;1999.90;999.90;;;;;;;;;;5093500;28;20047;-80
2021/10/21 12:14:43;;;;;;;1999.90;999.90;;;;;;;;;;5093220;28;20063;-80
2021/10/21 12:17:10;;;;;;;1999.90;999.90;;;;;;;;;;5093292;28;20024;-81
2021/10/21 12:19:38;;;;;;;1999.90;999.90;;;;;;;;;;5092870;28;20506;-81
2021/10/21 12:22:16;;;;;;;1999.90;999.90;;;;;;;;;;5093100;28;20020;-80
2021/10/21 12:24:43;;;;;;;1999.90;999.90;;;;;;;;;;5093504;28;20028;-82
2021/10/21 12:27:10;;;;;;;1999.90;999.90;;;;;;;;;;5093646;28;20020;-82
2021/10/21 12:29:43;;;;;;;1999.90;999.90;;;;;;;;;;5093131;28;20051;-80
2021/10/21 12:32:10;;;;;;;1999.90;999.90;;;;;;;;;;5093672;28;20055;-81
2021/10/21 12:34:36;;;;;;;1999.90;999.90;;;;;;;;;;5093271;28;20089;-82
2021/10/21 12:37:08;;;;;;;1999.90;999.90;;;;;;;;;;5093190;28;20028;-79
2021/10/21 12:39:36;;;;;;;1999.90;999.90;;;;;;;;;;5076268;28;20047;-80
2021/10/21 12:42:11;;;;;;;1999.90;999.90;;;;;;;;;;5093173;28;20024;-80
2021/10/21 12:44:42;;;;;;;1999.90;999.90;;;;;;;;;;5093084;28;20024;-81
2021/10/21 12:47:25;;;;;;;1999.90;999.90;;;;;;;;;;5093141;28;20024;-80
2021/10/21 12:49:54;;;;;;;1999.90;999.90;;;;;;;;;;5093003;28;20053;-81
2021/10/21 12:52:23;;;;;;;1999.90;999.90;;;;;;;;;;5092795;28;20070;-80
2021/10/21 12:54:49;;;;;;;1999.90;999.90;;;;;;;;;;5093983;28;20028;-81
2021/10/21 12:57:20;;;;;;;1999.90;999.90;;;;;;;;;;5092939;28;20119;-81
2021/10/21 12:59:46;;;;;;;1999.90;999.90;;;;;;;;;;5092867;28;20032;-80
2021/10/21 13:02:16;;;;;;;1999.90;999.90;;;;;;;;;;5092534;28;20024;-79
2021/10/21 13:04:50;;;;;;;1999.90;999.90;;;;;;;;;;5092820;28;20028;-81
2021/10/21 13:07:18;;;;;;;1999.90;999.90;;;;;;;;;;5092383;28;20055;-79
2021/10/21 13:09:44;;;;;;;1999.90;999.90;;;;;;;;;;5093620;28;20083;-81
2021/10/21 13:12:15;;;;;;;1999.90;999.90;;;;;;;;;;5092528;28;20016;-79
2021/10/21 13:14:41;;;;;;;1999.90;999.90;;;;;;;;;;5092652;28;20115;-78
2021/10/21 13:17:07;;;;;;;1999.90;999.90;;;;;;;;;;5092587;28;20031;-81
2021/10/21 13:19:35;;;;;;;1999.90;999.90;;;;;;;;;;5092775;28;20032;-80
2021/10/21 13:22:01;;;;;;;1999.90;999.90;;;;;;;;;;5092694;28;20016;-79
2021/10/21 13:24:27;;;;;;;1999.90;999.90;;;;;;;;;;5092552;28;20115;-79
2021/10/21 13:26:53;;;;;;;1999.90;999.90;;;;;;;;;;5092971;28;20471;-81
2021/10/21 13:29:19;;;;;;;1999.90;999.90;;;;;;;;;;5092538;28;20035;-80
2021/10/21 13:31:45;;;;;;;1999.90;999.90;;;;;;;;;;5093851;28;20532;-80
2021/10/21 13:34:11;;;;;;;1999.90;999.90;;;;;;;;;;5095880;28;20049;-80
2021/10/21 13:36:37;;;;;;;1999.90;999.90;;;;;;;;;;5096007;28;20012;-79
2021/10/21 13:39:04;;;;;;;1999.90;999.90;;;;;;;;;;5096250;28;20072;-81
2021/10/21 13:41:30;;;;;;;1999.90;999.90;;;;;;;;;;5096511;28;20024;-81
2021/10/21 13:43:56;;;;;;;1999.90;999.90;;;;;;;;;;5097290;28;20024;-81
2021/10/21 13:46:22;;;;;;;1999.90;999.90;;;;;;;;;;5096533;28;20020;-81